sensor_id;sensor_type;location;lat;lon;timestamp;pressure;altitude;pressure_sealevel;temperature;humidity
24031;BME280;12240;51.142;22.486;2022-10-22T00:02:23;99261.78;;;7.76;100.00
24031;BME280;12240;51.142;22.486;2022-10-22T00:04:53;99276.88;;;7.85;100.00
24031;BME280;12240;51.142;22.486;2022-10-22T00:07:24;99265.84;;;7.80;100.00
24031;BME280;12240;51.142;22.486;2022-10-22T00:09:52;99239.69;;;7.57;100.00
24031;BME280;12240;51.142;22.486;2022-10-22T00:12:20;99230.22;;;7.54;100.00
24031;BME280;12240;51.142;22.486;2022-10-22T00:14:48;99218.06;;;7.42;100.00
24031;BME280;12240;51.142;22.486;2022-10-22T00:17:18;99279.81;;;7.82;100.00
24031;BME280;12240;51.142;22.486;2022-10-22T00:19:45;99216.84;;;7.46;100.00
24031;BME280;12240;51.142;22.486;2022-10-22T00:22:14;99231.06;;;7.55;100.00
24031;BME280;12240;51.142;22.486;2022-10-22T00:24:42;99265.13;;;7.78;100.00
24031;BME280;12240;51.142;22.486;2022-10-22T00:27:11;99248.38;;;7.78;100.00
24031;BME280;12240;51.142;22.486;2022-10-22T00:29:41;99241.44;;;7.77;100.00
24031;BME280;12240;51.142;22.486;2022-10-22T00:32:09;99203.44;;;7.57;100.00
24031;BME280;12240;51.142;22.486;2022-10-22T00:34:37;99216.31;;;7.62;100.00
24031;BME280;12240;51.142;22.486;2022-10-22T00:37:05;99237.66;;;7.70;100.00
24031;BME280;12240;51.142;22.486;2022-10-22T00:39:33;99230.78;;;7.67;100.00
24031;BME280;12240;51.142;22.486;2022-10-22T00:42:01;99186.16;;;7.34;100.00
24031;BME280;12240;51.142;22.486;2022-10-22T00:45:21;99226.06;;;7.61;100.00
24031;BME280;12240;51.142;22.486;2022-10-22T00:48:17;99219.78;;;7.62;100.00
24031;BME280;12240;51.142;22.486;2022-10-22T00:50:58;99225.34;;;7.59;100.00
24031;BME280;12240;51.142;22.486;2022-10-22T00:53:37;99179.88;;;7.35;100.00
24031;BME280;12240;51.142;22.486;2022-10-22T00:56:06;99219.06;;;7.60;100.00
24031;BME280;12240;51.142;22.486;2022-10-22T00:58:42;99165.78;;;7.35;100.00
24031;BME280;12240;51.142;22.486;2022-10-22T01:01:16;99165.63;;;7.36;100.00
24031;BME280;12240;51.142;22.486;2022-10-22T01:03:47;99225.50;;;7.67;100.00
24031;BME280;12240;51.142;22.486;2022-10-22T01:06:27;99219.38;;;7.67;100.00
24031;BME280;12240;51.142;22.486;2022-10-22T01:18:09;99221.88;;;7.78;100.00
24031;BME280;12240;51.142;22.486;2022-10-22T01:21:06;99138.47;;;7.34;100.00
24031;BME280;12240;51.142;22.486;2022-10-22T01:24:08;99226.22;;;7.88;100.00
24031;BME280;12240;51.142;22.486;2022-10-22T01:30:00;99224.00;;;7.84;100.00
24031;BME280;12240;51.142;22.486;2022-10-22T01:33:18;99199.28;;;7.64;100.00
24031;BME280;12240;51.142;22.486;2022-10-22T01:35:36;99229.97;;;7.76;100.00
24031;BME280;12240;51.142;22.486;2022-10-22T01:38:10;99173.31;;;7.49;100.00
24031;BME280;12240;51.142;22.486;2022-10-22T01:40:39;99179.88;;;7.54;100.00
24031;BME280;12240;51.142;22.486;2022-10-22T01:43:10;99230.81;;;7.86;100.00
24031;BME280;12240;51.142;22.486;2022-10-22T01:45:53;99221.91;;;7.87;100.00
24031;BME280;12240;51.142;22.486;2022-10-22T01:51:29;99216.75;;;7.86;100.00
24031;BME280;12240;51.142;22.486;2022-10-22T01:57:45;99217.16;;;7.91;100.00
24031;BME280;12240;51.142;22.486;2022-10-22T02:00:18;99215.31;;;7.91;100.00
24031;BME280;12240;51.142;22.486;2022-10-22T02:03:02;99220.47;;;7.93;100.00
24031;BME280;12240;51.142;22.486;2022-10-22T02:05:53;99178.09;;;7.74;100.00
24031;BME280;12240;51.142;22.486;2022-10-22T02:08:31;99213.38;;;7.93;100.00
24031;BME280;12240;51.142;22.486;2022-10-22T02:11:00;99214.78;;;7.97;100.00
24031;BME280;12240;51.142;22.486;2022-10-22T02:13:36;99188.13;;;7.89;100.00
24031;BME280;12240;51.142;22.486;2022-10-22T02:16:08;99187.56;;;7.95;100.00
24031;BME280;12240;51.142;22.486;2022-10-22T02:18:41;99190.34;;;8.03;100.00
24031;BME280;12240;51.142;22.486;2022-10-22T02:21:11;99185.75;;;8.05;100.00
24031;BME280;12240;51.142;22.486;2022-10-22T02:23:40;99144.16;;;7.77;100.00
24031;BME280;12240;51.142;22.486;2022-10-22T02:29:02;99191.47;;;8.10;100.00
24031;BME280;12240;51.142;22.486;2022-10-22T02:31:35;99179.19;;;8.09;100.00
24031;BME280;12240;51.142;22.486;2022-10-22T02:34:09;99140.53;;;7.88;100.00
24031;BME280;12240;51.142;22.486;2022-10-22T02:36:42;99173.03;;;8.09;100.00
24031;BME280;12240;51.142;22.486;2022-10-22T02:39:17;99179.16;;;8.19;100.00
24031;BME280;12240;51.142;22.486;2022-10-22T02:41:47;99173.59;;;8.22;100.00
24031;BME280;12240;51.142;22.486;2022-10-22T02:44:19;99169.84;;;8.24;100.00
24031;BME280;12240;51.142;22.486;2022-10-22T02:46:47;99161.88;;;8.24;100.00
24031;BME280;12240;51.142;22.486;2022-10-22T02:49:16;99144.31;;;8.23;100.00
24031;BME280;12240;51.142;22.486;2022-10-22T02:51:44;99159.94;;;8.27;100.00
24031;BME280;12240;51.142;22.486;2022-10-22T02:54:13;99158.13;;;8.27;100.00
24031;BME280;12240;51.142;22.486;2022-10-22T02:56:43;99113.31;;;8.05;100.00
24031;BME280;12240;51.142;22.486;2022-10-22T02:59:10;99149.31;;;8.27;100.00
24031;BME280;12240;51.142;22.486;2022-10-22T03:01:38;99146.66;;;8.27;100.00
24031;BME280;12240;51.142;22.486;2022-10-22T03:04:06;99139.00;;;8.23;100.00
24031;BME280;12240;51.142;22.486;2022-10-22T03:06:35;99138.00;;;8.24;100.00
24031;BME280;12240;51.142;22.486;2022-10-22T03:09:03;99132.25;;;8.19;100.00
24031;BME280;12240;51.142;22.486;2022-10-22T03:11:31;99134.78;;;8.21;100.00
24031;BME280;12240;51.142;22.486;2022-10-22T03:13:59;99079.72;;;7.96;100.00
24031;BME280;12240;51.142;22.486;2022-10-22T03:16:27;99091.13;;;7.96;100.00
24031;BME280;12240;51.142;22.486;2022-10-22T03:18:55;99149.03;;;8.30;100.00
24031;BME280;12240;51.142;22.486;2022-10-22T03:21:40;99143.31;;;8.34;100.00
24031;BME280;12240;51.142;22.486;2022-10-22T03:24:20;99113.28;;;8.14;100.00
24031;BME280;12240;51.142;22.486;2022-10-22T03:26:50;99134.19;;;8.37;100.00
24031;BME280;12240;51.142;22.486;2022-10-22T03:29:22;99087.34;;;8.08;100.00
24031;BME280;12240;51.142;22.486;2022-10-22T03:31:53;99091.53;;;8.11;100.00
24031;BME280;12240;51.142;22.486;2022-10-22T03:34:21;99137.81;;;8.45;100.00
24031;BME280;12240;51.142;22.486;2022-10-22T03:36:51;99134.44;;;8.43;100.00
24031;BME280;12240;51.142;22.486;2022-10-22T03:39:22;99115.94;;;8.34;100.00
24031;BME280;12240;51.142;22.486;2022-10-22T03:41:51;99140.75;;;8.42;100.00
24031;BME280;12240;51.142;22.486;2022-10-22T03:44:21;99121.53;;;8.31;100.00
24031;BME280;12240;51.142;22.486;2022-10-22T03:46:49;99119.00;;;8.29;100.00
24031;BME280;12240;51.142;22.486;2022-10-22T03:49:17;99098.09;;;8.16;100.00
24031;BME280;12240;51.142;22.486;2022-10-22T03:51:45;99135.88;;;8.38;100.00
24031;BME280;12240;51.142;22.486;2022-10-22T03:54:15;99076.63;;;8.10;100.00
24031;BME280;12240;51.142;22.486;2022-10-22T03:56:43;99128.06;;;8.36;100.00
24031;BME280;12240;51.142;22.486;2022-10-22T03:59:11;99042.75;;;7.85;100.00
24031;BME280;12240;51.142;22.486;2022-10-22T04:01:40;99122.19;;;8.33;100.00
24031;BME280;12240;51.142;22.486;2022-10-22T04:04:08;99118.19;;;8.29;100.00
24031;BME280;12240;51.142;22.486;2022-10-22T04:06:36;99118.19;;;8.29;100.00
24031;BME280;12240;51.142;22.486;2022-10-22T04:09:04;99120.44;;;8.23;100.00
24031;BME280;12240;51.142;22.486;2022-10-22T04:11:32;99117.47;;;8.17;100.00
24031;BME280;12240;51.142;22.486;2022-10-22T04:14:00;99116.50;;;8.08;100.00
24031;BME280;12240;51.142;22.486;2022-10-22T04:16:28;99106.63;;;7.91;100.00
24031;BME280;12240;51.142;22.486;2022-10-22T04:18:58;99111.94;;;7.91;100.00
24031;BME280;12240;51.142;22.486;2022-10-22T04:21:26;99081.56;;;7.57;100.00
24031;BME280;12240;51.142;22.486;2022-10-22T04:23:54;99134.41;;;7.78;100.00
24031;BME280;12240;51.142;22.486;2022-10-22T04:26:22;99086.75;;;7.49;100.00
24031;BME280;12240;51.142;22.486;2022-10-22T04:28:51;99136.50;;;7.74;100.00
24031;BME280;12240;51.142;22.486;2022-10-22T04:31:22;99106.69;;;7.53;100.00
24031;BME280;12240;51.142;22.486;2022-10-22T04:33:57;99120.06;;;7.52;100.00
24031;BME280;12240;51.142;22.486;2022-10-22T04:36:27;99114.34;;;7.56;100.00
24031;BME280;12240;51.142;22.486;2022-10-22T04:38:59;99112.25;;;7.60;100.00
24031;BME280;12240;51.142;22.486;2022-10-22T04:41:35;99101.91;;;7.57;100.00
24031;BME280;12240;51.142;22.486;2022-10-22T04:44:04;99112.53;;;7.57;100.00
24031;BME280;12240;51.142;22.486;2022-10-22T04:46:34;99101.78;;;7.49;100.00
24031;BME280;12240;51.142;22.486;2022-10-22T04:49:02;99091.91;;;7.51;100.00
24031;BME280;12240;51.142;22.486;2022-10-22T04:51:31;99090.50;;;7.56;100.00
24031;BME280;12240;51.142;22.486;2022-10-22T04:53:59;99082.97;;;7.61;100.00
24031;BME280;12240;51.142;22.486;2022-10-22T04:56:30;99091.91;;;7.51;100.00
24031;BME280;12240;51.142;22.486;2022-10-22T04:59:05;99077.41;;;7.36;100.00
24031;BME280;12240;51.142;22.486;2022-10-22T05:01:37;99051.22;;;7.14;100.00
24031;BME280;12240;51.142;22.486;2022-10-22T05:04:16;99073.91;;;7.16;100.00
24031;BME280;12240;51.142;22.486;2022-10-22T05:06:47;99071.53;;;7.13;100.00
24031;BME280;12240;51.142;22.486;2022-10-22T05:09:19;99097.63;;;7.27;100.00
24031;BME280;12240;51.142;22.486;2022-10-22T05:11:50;99088.25;;;7.04;100.00
24031;BME280;12240;51.142;22.486;2022-10-22T05:14:22;99028.28;;;6.65;100.00
24031;BME280;12240;51.142;22.486;2022-10-22T05:16:51;99132.28;;;7.24;100.00
24031;BME280;12240;51.142;22.486;2022-10-22T05:19:25;99131.63;;;7.32;100.00
24031;BME280;12240;51.142;22.486;2022-10-22T05:21:56;99082.97;;;7.14;100.00
24031;BME280;12240;51.142;22.486;2022-10-22T05:24:25;99086.88;;;7.19;100.00
24031;BME280;12240;51.142;22.486;2022-10-22T05:26:57;99127.34;;;7.50;100.00
24031;BME280;12240;51.142;22.486;2022-10-22T05:29:26;99123.81;;;7.59;100.00
24031;BME280;12240;51.142;22.486;2022-10-22T05:31:54;99128.97;;;7.60;100.00
24031;BME280;12240;51.142;22.486;2022-10-22T05:34:22;99096.34;;;7.50;100.00
24031;BME280;12240;51.142;22.486;2022-10-22T05:36:50;99125.50;;;7.69;100.00
24031;BME280;12240;51.142;22.486;2022-10-22T05:39:18;99132.19;;;7.73;100.00
24031;BME280;12240;51.142;22.486;2022-10-22T05:41:46;99132.31;;;7.81;100.00
24031;BME280;12240;51.142;22.486;2022-10-22T05:44:17;99123.69;;;7.89;100.00
24031;BME280;12240;51.142;22.486;2022-10-22T05:46:45;99132.44;;;7.99;100.00
24031;BME280;12240;51.142;22.486;2022-10-22T05:49:14;99130.91;;;8.06;100.00
24031;BME280;12240;51.142;22.486;2022-10-22T05:51:44;99135.47;;;8.13;100.00
24031;BME280;12240;51.142;22.486;2022-10-22T05:54:19;99121.81;;;8.18;100.00
24031;BME280;12240;51.142;22.486;2022-10-22T05:56:47;99125.00;;;8.21;100.00
24031;BME280;12240;51.142;22.486;2022-10-22T05:59:15;99107.41;;;8.20;100.00
24031;BME280;12240;51.142;22.486;2022-10-22T06:01:43;99120.09;;;8.36;100.00
24031;BME280;12240;51.142;22.486;2022-10-22T06:04:12;99131.50;;;8.46;100.00
24031;BME280;12240;51.142;22.486;2022-10-22T06:06:49;99130.78;;;8.54;100.00
24031;BME280;12240;51.142;22.486;2022-10-22T06:11:52;99094.34;;;8.56;100.00
24031;BME280;12240;51.142;22.486;2022-10-22T06:14:21;99138.19;;;8.87;100.00
24031;BME280;12240;51.142;22.486;2022-10-22T06:16:50;99147.00;;;9.14;100.00
24031;BME280;12240;51.142;22.486;2022-10-22T06:19:21;99143.00;;;9.28;100.00
24031;BME280;12240;51.142;22.486;2022-10-22T06:21:50;99144.88;;;9.18;100.00
24031;BME280;12240;51.142;22.486;2022-10-22T06:24:18;99141.53;;;9.16;100.00
24031;BME280;12240;51.142;22.486;2022-10-22T06:26:50;99132.28;;;9.20;100.00
24031;BME280;12240;51.142;22.486;2022-10-22T06:29:21;99071.41;;;9.26;100.00
24031;BME280;12240;51.142;22.486;2022-10-22T06:31:50;99141.84;;;10.01;100.00
24031;BME280;12240;51.142;22.486;2022-10-22T06:34:18;99109.16;;;10.08;100.00
24031;BME280;12240;51.142;22.486;2022-10-22T06:36:47;99143.75;;;10.59;100.00
24031;BME280;12240;51.142;22.486;2022-10-22T06:39:18;99147.63;;;10.99;100.00
24031;BME280;12240;51.142;22.486;2022-10-22T06:41:46;99111.44;;;10.88;100.00
24031;BME280;12240;51.142;22.486;2022-10-22T06:44:18;99156.22;;;11.26;100.00
24031;BME280;12240;51.142;22.486;2022-10-22T06:46:50;99109.75;;;10.87;100.00
24031;BME280;12240;51.142;22.486;2022-10-22T06:49:20;99152.03;;;11.16;100.00
24031;BME280;12240;51.142;22.486;2022-10-22T06:51:52;99132.53;;;11.15;100.00
24031;BME280;12240;51.142;22.486;2022-10-22T06:54:21;99157.09;;;11.51;100.00
24031;BME280;12240;51.142;22.486;2022-10-22T06:56:49;99142.13;;;11.58;100.00
24031;BME280;12240;51.142;22.486;2022-10-22T06:59:17;99165.69;;;11.79;100.00
24031;BME280;12240;51.142;22.486;2022-10-22T07:01:45;99067.59;;;11.40;100.00
24031;BME280;12240;51.142;22.486;2022-10-22T07:04:13;99140.69;;;12.12;100.00
24031;BME280;12240;51.142;22.486;2022-10-22T07:06:42;99142.84;;;12.32;100.00
24031;BME280;12240;51.142;22.486;2022-10-22T07:09:10;99147.81;;;12.51;100.00
24031;BME280;12240;51.142;22.486;2022-10-22T07:11:43;99143.66;;;12.41;100.00
24031;BME280;12240;51.142;22.486;2022-10-22T07:14:13;99138.00;;;12.28;100.00
24031;BME280;12240;51.142;22.486;2022-10-22T07:16:41;99139.69;;;12.05;100.00
24031;BME280;12240;51.142;22.486;2022-10-22T07:19:10;99107.66;;;11.81;100.00
24031;BME280;12240;51.142;22.486;2022-10-22T07:21:38;99119.34;;;11.88;100.00
24031;BME280;12240;51.142;22.486;2022-10-22T07:24:07;99143.69;;;11.85;100.00
24031;BME280;12240;51.142;22.486;2022-10-22T07:26:35;99144.69;;;11.76;100.00
24031;BME280;12240;51.142;22.486;2022-10-22T07:29:04;99150.00;;;11.76;100.00
24031;BME280;12240;51.142;22.486;2022-10-22T07:31:32;99143.03;;;11.75;100.00
24031;BME280;12240;51.142;22.486;2022-10-22T07:34:01;99105.28;;;11.53;100.00
24031;BME280;12240;51.142;22.486;2022-10-22T07:36:29;99147.38;;;11.92;100.00
24031;BME280;12240;51.142;22.486;2022-10-22T07:39:00;99110.44;;;11.55;100.00
24031;BME280;12240;51.142;22.486;2022-10-22T07:41:29;99101.16;;;11.67;100.00
24031;BME280;12240;51.142;22.486;2022-10-22T07:43:58;99092.81;;;11.78;100.00
24031;BME280;12240;51.142;22.486;2022-10-22T07:46:26;99092.16;;;11.92;100.00
24031;BME280;12240;51.142;22.486;2022-10-22T07:48:55;99111.63;;;12.25;100.00
24031;BME280;12240;51.142;22.486;2022-10-22T07:51:23;99116.97;;;12.33;100.00
24031;BME280;12240;51.142;22.486;2022-10-22T07:53:51;99115.63;;;12.29;100.00
24031;BME280;12240;51.142;22.486;2022-10-22T07:56:19;99112.31;;;12.27;100.00
24031;BME280;12240;51.142;22.486;2022-10-22T07:58:47;99122.63;;;12.30;100.00
24031;BME280;12240;51.142;22.486;2022-10-22T08:01:15;99102.81;;;12.24;100.00
24031;BME280;12240;51.142;22.486;2022-10-22T08:03:43;99100.63;;;12.28;100.00
24031;BME280;12240;51.142;22.486;2022-10-22T08:06:12;99108.28;;;12.31;100.00
24031;BME280;12240;51.142;22.486;2022-10-22T08:08:42;99058.47;;;11.99;100.00
24031;BME280;12240;51.142;22.486;2022-10-22T08:11:11;99097.47;;;12.24;100.00
24031;BME280;12240;51.142;22.486;2022-10-22T08:13:39;99096.97;;;12.21;100.00
24031;BME280;12240;51.142;22.486;2022-10-22T08:16:12;99101.94;;;12.32;100.00
24031;BME280;12240;51.142;22.486;2022-10-22T08:18:41;99091.09;;;12.33;100.00
24031;BME280;12240;51.142;22.486;2022-10-22T08:21:11;99114.19;;;12.73;100.00
24031;BME280;12240;51.142;22.486;2022-10-22T08:23:39;99121.13;;;12.90;100.00
24031;BME280;12240;51.142;22.486;2022-10-22T08:26:09;99079.00;;;12.61;100.00
24031;BME280;12240;51.142;22.486;2022-10-22T08:28:37;99111.00;;;12.77;100.00
24031;BME280;12240;51.142;22.486;2022-10-22T08:31:06;99099.03;;;12.65;100.00
24031;BME280;12240;51.142;22.486;2022-10-22T08:33:36;99119.91;;;12.62;100.00
24031;BME280;12240;51.142;22.486;2022-10-22T08:36:06;99127.91;;;12.62;100.00
24031;BME280;12240;51.142;22.486;2022-10-22T08:38:34;99121.75;;;12.61;100.00
24031;BME280;12240;51.142;22.486;2022-10-22T08:41:17;99134.72;;;12.80;100.00
24031;BME280;12240;51.142;22.486;2022-10-22T08:44:18;99118.81;;;12.87;100.00
24031;BME280;12240;51.142;22.486;2022-10-22T08:47:14;99138.97;;;13.14;100.00
24031;BME280;12240;51.142;22.486;2022-10-22T08:49:49;99090.19;;;13.04;100.00
24031;BME280;12240;51.142;22.486;2022-10-22T08:52:19;99140.88;;;13.28;100.00
24031;BME280;12240;51.142;22.486;2022-10-22T08:54:58;99116.59;;;12.99;100.00
24031;BME280;12240;51.142;22.486;2022-10-22T09:00:54;99133.75;;;13.20;100.00
24031;BME280;12240;51.142;22.486;2022-10-22T09:06:23;99130.66;;;13.31;100.00
24031;BME280;12240;51.142;22.486;2022-10-22T09:08:54;99088.19;;;13.06;100.00
24031;BME280;12240;51.142;22.486;2022-10-22T09:11:35;99107.25;;;13.03;100.00
24031;BME280;12240;51.142;22.486;2022-10-22T09:14:05;99146.56;;;13.25;100.00
24031;BME280;12240;51.142;22.486;2022-10-22T09:17:04;99152.22;;;13.30;100.00
24031;BME280;12240;51.142;22.486;2022-10-22T09:25:37;99134.13;;;13.40;100.00
24031;BME280;12240;51.142;22.486;2022-10-22T09:28:08;99123.78;;;13.37;100.00
24031;BME280;12240;51.142;22.486;2022-10-22T09:30:38;99111.53;;;13.42;100.00
24031;BME280;12240;51.142;22.486;2022-10-22T09:35:54;99119.19;;;13.53;100.00
24031;BME280;12240;51.142;22.486;2022-10-22T09:38:28;99111.53;;;13.42;100.00
24031;BME280;12240;51.142;22.486;2022-10-22T09:40:59;99133.44;;;13.68;100.00
24031;BME280;12240;51.142;22.486;2022-10-22T09:43:27;99101.91;;;13.33;100.00
24031;BME280;12240;51.142;22.486;2022-10-22T09:46:02;99136.09;;;13.46;100.00
24031;BME280;12240;51.142;22.486;2022-10-22T09:48:36;99105.59;;;13.32;100.00
24031;BME280;12240;51.142;22.486;2022-10-22T09:51:22;99097.75;;;13.31;100.00
24031;BME280;12240;51.142;22.486;2022-10-22T09:53:58;99100.59;;;13.29;100.00
24031;BME280;12240;51.142;22.486;2022-10-22T09:56:34;99089.56;;;13.32;100.00
24031;BME280;12240;51.142;22.486;2022-10-22T09:59:03;99128.28;;;13.67;100.00
24031;BME280;12240;51.142;22.486;2022-10-22T10:01:34;99108.31;;;13.77;100.00
24031;BME280;12240;51.142;22.486;2022-10-22T10:04:14;99120.84;;;13.99;100.00
24031;BME280;12240;51.142;22.486;2022-10-22T10:06:43;99116.00;;;13.95;100.00
24031;BME280;12240;51.142;22.486;2022-10-22T10:09:21;99119.28;;;14.05;100.00
24031;BME280;12240;51.142;22.486;2022-10-22T10:30:04;99084.66;;;14.55;100.00
24031;BME280;12240;51.142;22.486;2022-10-22T10:33:10;99125.41;;;14.80;100.00
24031;BME280;12240;51.142;22.486;2022-10-22T10:36:02;99142.69;;;15.06;100.00
24031;BME280;12240;51.142;22.486;2022-10-22T10:39:11;99130.22;;;14.99;100.00
24031;BME280;12240;51.142;22.486;2022-10-22T10:44:55;99119.47;;;14.84;100.00
24031;BME280;12240;51.142;22.486;2022-10-22T10:53:38;99116.75;;;15.28;100.00
24031;BME280;12240;51.142;22.486;2022-10-22T11:08:24;99101.03;;;15.40;100.00
24031;BME280;12240;51.142;22.486;2022-10-22T11:11:20;99097.03;;;15.36;100.00
24031;BME280;12240;51.142;22.486;2022-10-22T11:17:15;99063.69;;;15.24;100.00
24031;BME280;12240;51.142;22.486;2022-10-22T11:20:26;99048.66;;;15.08;100.00
24031;BME280;12240;51.142;22.486;2022-10-22T11:23:10;99089.09;;;15.28;100.00
24031;BME280;12240;51.142;22.486;2022-10-22T11:25:49;99084.94;;;15.25;100.00
24031;BME280;12240;51.142;22.486;2022-10-22T11:28:42;99062.50;;;15.11;100.00
24031;BME280;12240;51.142;22.486;2022-10-22T11:31:16;99084.13;;;15.25;100.00
24031;BME280;12240;51.142;22.486;2022-10-22T11:33:57;99055.38;;;15.18;100.00
24031;BME280;12240;51.142;22.486;2022-10-22T11:36:42;99081.75;;;15.36;100.00
24031;BME280;12240;51.142;22.486;2022-10-22T11:42:21;99010.22;;;14.86;100.00
24031;BME280;12240;51.142;22.486;2022-10-22T11:45:25;99085.16;;;15.24;100.00
24031;BME280;12240;51.142;22.486;2022-10-22T11:50:58;99089.09;;;15.42;100.00
24031;BME280;12240;51.142;22.486;2022-10-22T12:03:41;99077.16;;;14.94;100.00
24031;BME280;12240;51.142;22.486;2022-10-22T12:11:46;99070.69;;;14.89;100.00
24031;BME280;12240;51.142;22.486;2022-10-22T12:15:19;99073.19;;;14.90;100.00
24031;BME280;12240;51.142;22.486;2022-10-22T12:17:16;99070.97;;;14.79;100.00
24031;BME280;12240;51.142;22.486;2022-10-22T12:20:06;99031.63;;;14.51;100.00
24031;BME280;12240;51.142;22.486;2022-10-22T12:22:38;99039.84;;;14.49;100.00
24031;BME280;12240;51.142;22.486;2022-10-22T12:25:22;99063.94;;;14.64;100.00
24031;BME280;12240;51.142;22.486;2022-10-22T12:27:56;99013.44;;;14.32;100.00
24031;BME280;12240;51.142;22.486;2022-10-22T12:30:29;99053.91;;;14.51;100.00
24031;BME280;12240;51.142;22.486;2022-10-22T12:33:01;99053.91;;;14.51;100.00
24031;BME280;12240;51.142;22.486;2022-10-22T12:35:41;99054.09;;;14.50;100.00
24031;BME280;12240;51.142;22.486;2022-10-22T12:38:21;99050.03;;;14.39;100.00
24031;BME280;12240;51.142;22.486;2022-10-22T12:40:52;99057.03;;;14.40;100.00
24031;BME280;12240;51.142;22.486;2022-10-22T12:43:29;99070.78;;;14.37;100.00
24031;BME280;12240;51.142;22.486;2022-10-22T12:45:58;99059.84;;;14.24;100.00
24031;BME280;12240;51.142;22.486;2022-10-22T12:48:30;99068.91;;;14.23;100.00
24031;BME280;12240;51.142;22.486;2022-10-22T12:51:03;99032.69;;;13.98;100.00
24031;BME280;12240;51.142;22.486;2022-10-22T12:53:49;99064.25;;;14.17;100.00
24031;BME280;12240;51.142;22.486;2022-10-22T12:56:24;99067.13;;;14.16;100.00
24031;BME280;12240;51.142;22.486;2022-10-22T12:59:01;99062.31;;;14.11;100.00
24031;BME280;12240;51.142;22.486;2022-10-22T13:01:38;99065.00;;;14.11;100.00
24031;BME280;12240;51.142;22.486;2022-10-22T13:09:58;99041.88;;;13.81;100.00
24031;BME280;12240;51.142;22.486;2022-10-22T13:12:33;99042.09;;;13.71;100.00
24031;BME280;12240;51.142;22.486;2022-10-22T13:18:22;99069.44;;;13.81;100.00
24031;BME280;12240;51.142;22.486;2022-10-22T13:21:00;99071.47;;;13.79;100.00
24031;BME280;12240;51.142;22.486;2022-10-22T13:23:34;99052.81;;;13.71;100.00
24031;BME280;12240;51.142;22.486;2022-10-22T13:26:13;99074.41;;;13.70;100.00
24031;BME280;12240;51.142;22.486;2022-10-22T13:28:44;99057.09;;;13.58;100.00
24031;BME280;12240;51.142;22.486;2022-10-22T13:31:24;99058.81;;;13.51;100.00
24031;BME280;12240;51.142;22.486;2022-10-22T13:33:57;99054.25;;;13.37;100.00
24031;BME280;12240;51.142;22.486;2022-10-22T13:36:30;99030.69;;;13.10;100.00
24031;BME280;12240;51.142;22.486;2022-10-22T13:38:59;99059.00;;;13.27;100.00
24031;BME280;12240;51.142;22.486;2022-10-22T13:41:29;99057.91;;;13.13;100.00
24031;BME280;12240;51.142;22.486;2022-10-22T13:43:59;99061.97;;;13.01;100.00
24031;BME280;12240;51.142;22.486;2022-10-22T13:46:27;99019.56;;;12.67;100.00
24031;BME280;12240;51.142;22.486;2022-10-22T13:48:56;99018.09;;;12.57;100.00
24031;BME280;12240;51.142;22.486;2022-10-22T13:51:32;99026.44;;;12.54;100.00
24031;BME280;12240;51.142;22.486;2022-10-22T13:54:28;99051.63;;;12.59;100.00
24031;BME280;12240;51.142;22.486;2022-10-22T13:56:57;99053.00;;;12.55;100.00
24031;BME280;12240;51.142;22.486;2022-10-22T13:59:25;99055.00;;;12.53;100.00
24031;BME280;12240;51.142;22.486;2022-10-22T14:01:52;99062.00;;;12.54;100.00
24031;BME280;12240;51.142;22.486;2022-10-22T14:04:22;99024.69;;;12.30;100.00
24031;BME280;12240;51.142;22.486;2022-10-22T14:06:51;99053.72;;;12.41;100.00
24031;BME280;12240;51.142;22.486;2022-10-22T14:09:19;99071.91;;;12.38;100.00
24031;BME280;12240;51.142;22.486;2022-10-22T14:11:48;99067.22;;;12.40;100.00
24031;BME280;12240;51.142;22.486;2022-10-22T14:14:16;99077.09;;;12.31;100.00
24031;BME280;12240;51.142;22.486;2022-10-22T14:16:47;99073.94;;;12.28;100.00
24031;BME280;12240;51.142;22.486;2022-10-22T14:19:16;99078.78;;;12.24;100.00
24031;BME280;12240;51.142;22.486;2022-10-22T14:21:45;99077.44;;;12.20;100.00
24031;BME280;12240;51.142;22.486;2022-10-22T14:24:14;99085.31;;;12.14;100.00
24031;BME280;12240;51.142;22.486;2022-10-22T14:26:42;99083.47;;;12.06;100.00
24031;BME280;12240;51.142;22.486;2022-10-22T14:29:10;99089.81;;;11.97;100.00
24031;BME280;12240;51.142;22.486;2022-10-22T14:31:40;99076.50;;;11.81;100.00
24031;BME280;12240;51.142;22.486;2022-10-22T14:34:14;99092.84;;;11.86;100.00
24031;BME280;12240;51.142;22.486;2022-10-22T14:36:42;99091.50;;;11.82;100.00
24031;BME280;12240;51.142;22.486;2022-10-22T14:39:12;99070.34;;;11.73;100.00
24031;BME280;12240;51.142;22.486;2022-10-22T14:41:40;99066.84;;;11.64;100.00
24031;BME280;12240;51.142;22.486;2022-10-22T14:44:12;99043.13;;;11.45;100.00
24031;BME280;12240;51.142;22.486;2022-10-22T14:46:44;99081.47;;;11.68;100.00
24031;BME280;12240;51.142;22.486;2022-10-22T14:49:16;99077.78;;;11.61;100.00
24031;BME280;12240;51.142;22.486;2022-10-22T14:51:46;99076.63;;;11.55;100.00
24031;BME280;12240;51.142;22.486;2022-10-22T14:54:14;98961.44;;;10.88;100.00
24031;BME280;12240;51.142;22.486;2022-10-22T14:56:43;99070.47;;;11.55;100.00
24031;BME280;12240;51.142;22.486;2022-10-22T14:59:11;99074.78;;;11.48;100.00
24031;BME280;12240;51.142;22.486;2022-10-22T15:01:42;99073.25;;;11.45;100.00
24031;BME280;12240;51.142;22.486;2022-10-22T15:04:14;99079.44;;;11.46;100.00
24031;BME280;12240;51.142;22.486;2022-10-22T15:06:42;99095.59;;;11.44;100.00
24031;BME280;12240;51.142;22.486;2022-10-22T15:09:10;99033.75;;;11.09;100.00